Time;durP1;ratioP1;P1;durP2;ratioP2;P2;SDS_P1;SDS_P2;PMS_P1;PMS_P2;Temp;Humidity;BMP_temperature;BMP_pressure;BME280_temperature;BME280_humidity;BME280_pressure;Samples;Min_cycle;Max_cycle;Signal;HPM_P1;HPM_P2
2023/05/21 00:01:04;;;;;;;13.50;8.93;;;13.80;93.60;;;;;;5095703;28;20438;-68
2023/05/21 00:03:34;;;;;;;10.57;8.80;;;13.70;93.20;;;;;;5096189;28;20446;-68
2023/05/21 00:06:02;;;;;;;10.70;8.47;;;13.70;93.10;;;;;;5095388;28;20470;-67
2023/05/21 00:08:29;;;;;;;11.43;8.40;;;13.70;93.10;;;;;;5095959;28;20959;-67
2023/05/21 00:10:56;;;;;;;10.00;7.53;;;13.60;93.10;;;;;;5095219;28;20443;-68
2023/05/21 00:13:23;;;;;;;9.97;8.13;;;13.50;93.40;;;;;;5095752;28;20434;-67
2023/05/21 00:15:50;;;;;;;15.50;8.80;;;13.50;93.70;;;;;;5095403;28;20458;-67
2023/05/21 00:18:18;;;;;;;11.50;8.43;;;13.50;93.80;;;;;;5096065;28;20527;-68
2023/05/21 00:20:46;;;;;;;16.37;10.30;;;13.60;93.90;;;;;;5095497;28;20824;-68
2023/05/21 00:23:17;;;;;;;12.70;8.97;;;13.50;93.90;;;;;;5096071;28;20793;-68
2023/05/21 00:25:45;;;;;;;18.07;8.90;;;13.50;93.90;;;;;;5095093;28;20461;-67
2023/05/21 00:28:12;;;;;;;11.53;8.70;;;13.50;94.10;;;;;;5095583;28;20439;-67
2023/05/21 00:30:39;;;;;;;11.00;9.10;;;13.50;94.00;;;;;;5095141;28;20435;-67
2023/05/21 00:33:09;;;;;;;12.47;9.27;;;13.50;94.00;;;;;;5095542;28;20525;-67
2023/05/21 00:35:36;;;;;;;10.43;8.90;;;13.50;93.90;;;;;;5095013;28;20446;-68
2023/05/21 00:38:06;;;;;;;13.87;10.20;;;13.50;93.80;;;;;;5094846;28;20470;-67
2023/05/21 00:40:33;;;;;;;13.10;9.27;;;13.50;93.80;;;;;;5094726;28;20828;-67
2023/05/21 00:43:00;;;;;;;11.30;9.10;;;13.50;93.80;;;;;;5095291;28;20435;-68
2023/05/21 00:45:28;;;;;;;11.00;8.67;;;13.40;93.50;;;;;;5094904;28;20443;-67
2023/05/21 00:47:55;;;;;;;12.57;7.97;;;13.40;93.50;;;;;;5094740;28;20937;-67
2023/05/21 00:50:23;;;;;;;11.77;8.47;;;13.40;93.50;;;;;;5094706;28;20956;-68
2023/05/21 00:52:50;;;;;;;12.03;8.70;;;13.40;93.60;;;;;;5095213;28;20438;-67
2023/05/21 00:55:19;;;;;;;12.63;8.07;;;13.40;93.70;;;;;;5094247;28;20466;-68
2023/05/21 00:57:46;;;;;;;10.43;8.23;;;13.40;93.90;;;;;;5095069;28;20522;-67
2023/05/21 01:00:15;;;;;;;11.37;9.47;;;13.40;93.70;;;;;;5094572;28;20528;-67
2023/05/21 01:02:43;;;;;;;14.53;7.57;;;13.30;93.60;;;;;;5095129;28;20435;-67
2023/05/21 01:05:10;;;;;;;13.33;8.30;;;13.30;93.90;;;;;;5094541;28;21016;-67
2023/05/21 01:07:40;;;;;;;11.10;8.03;;;13.30;94.20;;;;;;5094979;28;20446;-67
2023/05/21 01:10:10;;;;;;;9.60;8.17;;;13.30;94.30;;;;;;5094201;28;20918;-68
2023/05/21 01:12:41;;;;;;;8.63;7.53;;;13.30;94.50;;;;;;5094383;28;20439;-67
2023/05/21 01:15:09;;;;;;;11.10;8.53;;;13.20;94.10;;;;;;5093857;28;20427;-68
2023/05/21 01:17:36;;;;;;;11.43;8.63;;;13.10;94.10;;;;;;5094659;28;20488;-68
2023/05/21 01:20:08;;;;;;;10.97;7.77;;;13.10;94.10;;;;;;5094084;28;20470;-68
2023/05/21 01:22:43;;;;;;;10.10;7.63;;;13.00;94.40;;;;;;5094607;28;20548;-68
2023/05/21 01:25:12;;;;;;;9.37;7.87;;;13.00;94.70;;;;;;5093621;28;20443;-67
2023/05/21 01:27:39;;;;;;;8.63;6.87;;;12.90;94.70;;;;;;5094572;28;20454;-67
2023/05/21 01:30:08;;;;;;;10.10;7.40;;;12.90;94.80;;;;;;5093941;28;20436;-67
2023/05/21 01:32:40;;;;;;;8.97;7.03;;;12.90;94.80;;;;;;5094048;28;20488;-68
2023/05/21 01:35:11;;;;;;;10.17;7.83;;;12.90;94.80;;;;;;5075688;28;20450;-67
2023/05/21 01:37:44;;;;;;;10.60;8.07;;;12.90;95.00;;;;;;5093960;28;20766;-68
2023/05/21 01:40:17;;;;;;;13.20;8.17;;;12.90;94.90;;;;;;5073822;28;20487;-67
2023/05/21 01:42:47;;;;;;;9.00;7.53;;;12.80;94.70;;;;;;5074566;28;20433;-68
2023/05/21 01:45:16;;;;;;;10.30;7.97;;;12.80;94.50;;;;;;5076027;28;20802;-67
2023/05/21 01:47:47;;;;;;;11.70;8.40;;;12.70;94.50;;;;;;5094214;28;20439;-67
2023/05/21 01:50:14;;;;;;;11.33;8.03;;;12.70;94.60;;;;;;5093025;28;20466;-67
2023/05/21 01:52:49;;;;;;;14.03;9.17;;;12.70;95.00;;;;;;5094001;28;20537;-67
2023/05/21 01:55:23;;;;;;;11.87;8.53;;;12.70;95.10;;;;;;5093378;28;20444;-67
2023/05/21 01:57:51;;;;;;;9.87;8.03;;;12.60;95.40;;;;;;5094134;28;20941;-67
2023/05/21 02:00:22;;;;;;;10.20;7.40;;;12.60;95.40;;;;;;5093160;28;20475;-68
2023/05/21 02:02:51;;;;;;;12.77;9.10;;;12.60;95.50;;;;;;5094157;28;20442;-67
2023/05/21 02:05:18;;;;;;;12.93;8.83;;;12.60;95.60;;;;;;5092685;28;20487;-67
2023/05/21 02:07:46;;;;;;;12.88;8.80;;;12.60;95.60;;;;;;5094283;28;20450;-67
2023/05/21 02:10:13;;;;;;;11.17;8.93;;;12.60;95.60;;;;;;5093347;28;20559;-68
2023/05/21 02:12:41;;;;;;;14.27;10.40;;;12.60;95.80;;;;;;5093953;28;20447;-67
2023/05/21 02:15:09;;;;;;;13.70;9.33;;;12.50;95.90;;;;;;5093005;28;20484;-67
2023/05/21 02:17:37;;;;;;;12.97;9.67;;;12.50;96.10;;;;;;5093356;28;20879;-67
2023/05/21 02:20:10;;;;;;;11.93;9.73;;;12.60;96.40;;;;;;5093039;28;20478;-67
2023/05/21 02:22:37;;;;;;;16.50;9.13;;;12.60;96.40;;;;;;5093451;28;20443;-67
2023/05/21 02:25:06;;;;;;;13.60;9.43;;;12.60;96.50;;;;;;5092689;28;20435;-68
2023/05/21 02:27:33;;;;;;;15.20;10.10;;;12.60;96.50;;;;;;5092892;28;21009;-67
2023/05/21 02:30:02;;;;;;;12.60;10.33;;;12.60;96.50;;;;;;5092885;28;20480;-67
2023/05/21 02:32:30;;;;;;;12.50;10.03;;;12.60;96.40;;;;;;5092298;28;20431;-67
2023/05/21 02:34:57;;;;;;;15.63;9.93;;;12.50;96.50;;;;;;5092904;28;20442;-67
2023/05/21 02:37:26;;;;;;;12.53;10.80;;;12.50;96.70;;;;;;5092678;28;20504;-67
2023/05/21 02:39:53;;;;;;;16.80;9.57;;;12.50;96.90;;;;;;5093034;28;20561;-67
2023/05/21 02:42:21;;;;;;;13.80;9.73;;;12.50;97.00;;;;;;5092671;28;20852;-67
2023/05/21 02:44:49;;;;;;;12.93;9.43;;;12.50;97.20;;;;;;5092993;28;20560;-68
2023/05/21 02:47:17;;;;;;;11.77;9.33;;;12.50;97.20;;;;;;5092689;28;20582;-67
2023/05/21 02:49:44;;;;;;;12.70;9.37;;;12.50;97.00;;;;;;5093152;28;20844;-67
2023/05/21 02:52:13;;;;;;;10.80;9.13;;;12.50;96.70;;;;;;5092582;28;20439;-67
2023/05/21 02:54:40;;;;;;;13.07;9.80;;;12.50;96.90;;;;;;5092592;28;20435;-67
2023/05/21 02:57:07;;;;;;;11.10;8.77;;;12.50;97.00;;;;;;5092706;28;20488;-68
2023/05/21 02:59:34;;;;;;;13.80;9.57;;;12.40;97.30;;;;;;5092724;28;20479;-67
2023/05/21 03:02:01;;;;;;;11.90;10.63;;;12.40;97.60;;;;;;5092347;28;20438;-67
2023/05/21 03:04:29;;;;;;;11.83;10.47;;;12.40;98.00;;;;;;5092748;28;20848;-67
2023/05/21 03:06:57;;;;;;;9.83;8.43;;;12.40;98.00;;;;;;5092254;28;20544;-67
2023/05/21 03:09:24;;;;;;;13.10;9.30;;;12.40;97.60;;;;;;5092506;28;20934;-67
2023/05/21 03:11:51;;;;;;;12.47;9.37;;;12.30;97.40;;;;;;5092436;28;20439;-68
2023/05/21 03:14:18;;;;;;;12.20;9.13;;;12.30;97.50;;;;;;5092823;28;20847;-67
2023/05/21 03:16:45;;;;;;;13.53;9.73;;;12.30;97.60;;;;;;5092323;28;20221;-67
2023/05/21 03:19:13;;;;;;;22.90;9.87;;;12.30;97.60;;;;;;5092641;28;20988;-67
2023/05/21 03:21:41;;;;;;;11.40;8.40;;;12.30;97.40;;;;;;5092186;28;20442;-68
2023/05/21 03:24:09;;;;;;;13.00;9.00;;;12.30;97.50;;;;;;5092510;28;20937;-67
2023/05/21 03:26:36;;;;;;;11.52;8.68;;;12.30;97.50;;;;;;5091647;28;20443;-67
2023/05/21 03:29:03;;;;;;;19.73;12.53;;;12.30;97.80;;;;;;5092097;28;20506;-67
2023/05/21 03:31:30;;;;;;;11.70;8.90;;;12.30;97.90;;;;;;5092294;28;20496;-67
2023/05/21 03:33:56;;;;;;;9.20;8.30;;;12.30;98.20;;;;;;5092512;28;20794;-67
2023/05/21 03:36:28;;;;;;;17.40;8.77;;;12.30;98.40;;;;;;5091980;28;20442;-67
2023/05/21 03:38:56;;;;;;;13.47;9.23;;;12.40;98.00;;;;;;5092263;28;20471;-67
2023/05/21 03:41:23;;;;;;;11.50;8.90;;;12.30;97.60;;;;;;5091750;28;20855;-68
2023/05/21 03:43:50;;;;;;;12.53;9.37;;;12.30;97.60;;;;;;5092363;28;20232;-67
2023/05/21 03:46:22;;;;;;;13.67;10.10;;;12.30;97.70;;;;;;5092069;28;20439;-67
2023/05/21 03:48:49;;;;;;;11.17;8.80;;;12.40;97.70;;;;;;5092598;28;20835;-67
2023/05/21 03:51:17;;;;;;;13.33;10.70;;;12.40;97.80;;;;;;5092286;28;20439;-67
2023/05/21 03:53:44;;;;;;;15.50;10.67;;;12.40;97.60;;;;;;5092262;28;20473;-67
2023/05/21 03:56:12;;;;;;;11.40;8.63;;;12.40;97.60;;;;;;5091974;28;20458;-67
2023/05/21 03:58:39;;;;;;;9.77;8.70;;;12.50;97.30;;;;;;5092316;28;20438;-67
2023/05/21 04:01:07;;;;;;;9.67;8.10;;;12.40;97.20;;;;;;5091749;28;20547;-67
2023/05/21 04:03:34;;;;;;;8.53;7.60;;;12.40;97.30;;;;;;5092289;28;20470;-68
2023/05/21 04:06:01;;;;;;;10.63;8.80;;;12.40;97.40;;;;;;5091925;28;20449;-67
2023/05/21 04:08:30;;;;;;;13.13;8.43;;;12.40;97.30;;;;;;5092052;28;21006;-67
2023/05/21 04:10:57;;;;;;;13.20;7.90;;;12.40;97.30;;;;;;5092184;28;20445;-67
2023/05/21 04:13:27;;;;;;;10.30;9.00;;;12.40;97.40;;;;;;5093616;28;20201;-67
2023/05/21 04:15:54;;;;;;;10.97;8.97;;;12.40;97.50;;;;;;5095221;28;20976;-67
2023/05/21 04:18:24;;;;;;;10.17;8.67;;;12.50;97.50;;;;;;5096172;28;20847;-67
2023/05/21 04:20:51;;;;;;;11.10;8.00;;;12.50;97.60;;;;;;5095378;28;20997;-67
2023/05/21 04:23:18;;;;;;;13.63;9.10;;;12.50;97.70;;;;;;5096406;28;20446;-67
2023/05/21 04:25:49;;;;;;;10.23;9.07;;;12.50;97.90;;;;;;5095375;28;20461;-68
2023/05/21 04:28:18;;;;;;;16.27;11.13;;;12.60;98.00;;;;;;5096217;28;20238;-67
2023/05/21 04:30:48;;;;;;;18.52;10.18;;;12.60;97.60;;;;;;5095244;28;20485;-67
2023/05/21 04:33:16;;;;;;;12.40;9.03;;;12.60;97.80;;;;;;5096075;28;20547;-67
2023/05/21 04:35:45;;;;;;;13.47;9.63;;;12.60;97.50;;;;;;5095089;28;20838;-67
2023/05/21 04:38:12;;;;;;;13.03;9.90;;;12.60;97.60;;;;;;5095974;28;20434;-67
2023/05/21 04:40:40;;;;;;;12.82;10.00;;;12.60;97.60;;;;;;5094682;28;20475;-67
2023/05/21 04:43:07;;;;;;;12.00;9.03;;;12.60;97.50;;;;;;5095409;28;20196;-67
2023/05/21 04:45:34;;;;;;;11.67;8.20;;;12.70;97.40;;;;;;5094866;28;20995;-67
2023/05/21 04:48:03;;;;;;;9.97;7.83;;;12.80;97.10;;;;;;5095195;28;20441;-67
2023/05/21 04:50:30;;;;;;;10.87;8.63;;;12.80;97.10;;;;;;5095091;28;20790;-67
2023/05/21 04:52:58;;;;;;;13.53;7.20;;;12.80;96.90;;;;;;5095444;28;20423;-67
2023/05/21 04:55:26;;;;;;;11.43;7.40;;;12.80;96.70;;;;;;5094483;28;20439;-67
2023/05/21 04:57:53;;;;;;;10.23;8.45;;;12.80;96.70;;;;;;5095465;28;20439;-67
2023/05/21 05:00:20;;;;;;;11.63;8.13;;;12.80;96.80;;;;;;5094486;28;20275;-67
2023/05/21 05:02:47;;;;;;;10.20;6.67;;;12.80;97.20;;;;;;5095054;28;20468;-67
2023/05/21 05:05:15;;;;;;;11.83;7.87;;;12.80;96.90;;;;;;5095001;28;20840;-67
2023/05/21 05:07:42;;;;;;;18.13;8.23;;;12.90;96.80;;;;;;5095047;28;20496;-67
2023/05/21 05:10:10;;;;;;;8.47;6.90;;;12.90;96.70;;;;;;5094190;28;20447;-68
2023/05/21 05:12:37;;;;;;;10.30;7.40;;;12.90;97.10;;;;;;5074590;28;20443;-67
2023/05/21 05:15:04;;;;;;;10.50;8.90;;;13.00;97.30;;;;;;5080434;28;20451;-67
2023/05/21 05:17:33;;;;;;;9.07;7.47;;;13.10;97.40;;;;;;5094871;28;20439;-67
2023/05/21 05:20:00;;;;;;;10.43;7.87;;;13.10;97.40;;;;;;5093989;28;20474;-67
2023/05/21 05:22:28;;;;;;;10.13;7.93;;;13.20;97.20;;;;;;5094516;28;20439;-68
2023/05/21 05:24:55;;;;;;;9.17;7.03;;;13.30;97.00;;;;;;5074343;28;20436;-67
2023/05/21 05:27:22;;;;;;;9.03;7.40;;;13.40;96.70;;;;;;5074607;28;20444;-68
2023/05/21 05:29:49;;;;;;;13.30;6.60;;;13.50;96.40;;;;;;5093247;28;20439;-67
2023/05/21 05:32:16;;;;;;;7.87;6.57;;;13.60;96.20;;;;;;5094726;28;20439;-67
2023/05/21 05:34:45;;;;;;;10.20;6.50;;;13.70;95.90;;;;;;5093816;28;20458;-68
2023/05/21 05:37:12;;;;;;;12.13;8.37;;;13.80;95.40;;;;;;5094246;28;20847;-67
2023/05/21 05:39:41;;;;;;;12.23;7.47;;;13.90;95.20;;;;;;5091282;28;20516;-67
2023/05/21 05:42:08;;;;;;;10.30;8.37;;;14.00;95.60;;;;;;5093943;28;20443;-67
2023/05/21 05:44:35;;;;;;;13.93;8.70;;;14.10;94.90;;;;;;5094056;28;20435;-67
2023/05/21 05:47:02;;;;;;;10.63;8.10;;;14.10;94.80;;;;;;5093515;28;20490;-67
2023/05/21 05:49:29;;;;;;;11.10;7.60;;;14.20;95.00;;;;;;5094116;28;20439;-68
2023/05/21 05:51:56;;;;;;;8.37;6.40;;;14.30;94.40;;;;;;5094117;28;20805;-67
2023/05/21 05:54:24;;;;;;;8.43;7.23;;;14.40;94.10;;;;;;5093744;28;20439;-68
2023/05/21 05:56:53;;;;;;;9.00;6.70;;;14.40;93.80;;;;;;5073854;28;20432;-67
2023/05/21 05:59:20;;;;;;;9.20;6.90;;;14.50;94.00;;;;;;5074416;28;20435;-68
2023/05/21 06:01:47;;;;;;;9.60;7.30;;;14.60;94.30;;;;;;5073611;28;20483;-67
2023/05/21 06:04:16;;;;;;;8.80;7.13;;;14.70;94.00;;;;;;5073832;28;20479;-67
2023/05/21 06:06:43;;;;;;;9.57;7.30;;;14.80;93.80;;;;;;5092867;28;20450;-67
2023/05/21 06:09:12;;;;;;;11.97;7.90;;;14.90;93.40;;;;;;5093812;28;20496;-67
2023/05/21 06:11:39;;;;;;;8.43;7.20;;;15.00;93.40;;;;;;5093223;28;20527;-68
2023/05/21 06:14:07;;;;;;;8.37;6.90;;;15.10;93.50;;;;;;5093712;28;20991;-67
2023/05/21 06:16:35;;;;;;;9.63;7.50;;;15.20;93.70;;;;;;5093933;28;20459;-67
2023/05/21 06:19:02;;;;;;;9.03;7.60;;;15.40;92.80;;;;;;5094907;28;20431;-68
2023/05/21 06:21:30;;;;;;;7.30;5.67;;;15.40;92.30;;;;;;5094587;28;20528;-68
2023/05/21 06:24:00;;;;;;;10.30;7.60;;;15.60;92.20;;;;;;5094033;28;20937;-68
2023/05/21 06:26:27;;;;;;;7.17;5.57;;;15.70;92.40;;;;;;5094103;28;20537;-67
2023/05/21 06:28:54;;;;;;;9.10;6.70;;;15.90;92.10;;;;;;5090628;28;20469;-68
2023/05/21 06:31:25;;;;;;;8.37;6.43;;;16.00;91.70;;;;;;5090546;28;20841;-68
2023/05/21 06:33:52;;;;;;;7.10;6.17;;;16.20;91.50;;;;;;5090293;28;20452;-68
2023/05/21 06:36:19;;;;;;;8.03;5.60;;;16.30;91.30;;;;;;5089494;28;20840;-68
2023/05/21 06:38:46;;;;;;;7.00;5.20;;;16.40;90.40;;;;;;5089586;28;20856;-68
2023/05/21 06:41:13;;;;;;;8.30;6.13;;;16.60;90.40;;;;;;5090487;28;20977;-68
2023/05/21 06:43:40;;;;;;;9.33;7.00;;;16.80;90.60;;;;;;5090199;28;20527;-67
2023/05/21 06:46:07;;;;;;;8.33;5.70;;;17.00;90.40;;;;;;5073930;28;20440;-67
2023/05/21 06:48:36;;;;;;;6.40;5.20;;;17.30;90.00;;;;;;5072944;28;20443;-67
2023/05/21 06:51:02;;;;;;;10.37;5.60;;;17.50;87.20;;;;;;5090181;28;20431;-68
2023/05/21 06:53:29;;;;;;;7.60;5.47;;;17.70;86.00;;;;;;5079214;28;20444;-68
2023/05/21 06:55:56;;;;;;;7.07;5.50;;;17.90;83.20;;;;;;5072171;28;20501;-68
2023/05/21 06:58:41;;;;;;;7.13;5.03;;;18.10;83.40;;;;;;5089710;28;20447;-68
2023/05/21 07:01:08;;;;;;;7.20;6.13;;;18.40;82.70;;;;;;5072079;28;20537;-68
2023/05/21 07:03:37;;;;;;;7.70;4.90;;;18.70;79.00;;;;;;5089168;28;20972;-68
2023/05/21 07:06:05;;;;;;;8.30;6.33;;;18.80;74.30;;;;;;5089471;28;20798;-68
2023/05/21 07:08:32;;;;;;;6.50;4.87;;;19.00;73.30;;;;;;5079694;28;20436;-68
2023/05/21 07:10:59;;;;;;;9.70;6.37;;;19.20;74.20;;;;;;5072767;28;20448;-68
2023/05/21 07:13:26;;;;;;;8.53;5.40;;;19.40;71.60;;;;;;5090319;28;20459;-68
2023/05/21 07:15:52;;;;;;;12.20;4.83;;;19.70;67.80;;;;;;5090265;28;20491;-68
2023/05/21 07:18:19;;;;;;;6.40;4.83;;;19.90;65.70;;;;;;5080037;28;20475;-68
2023/05/21 07:20:48;;;;;;;6.87;5.03;;;20.20;65.70;;;;;;5083271;28;20481;-69
2023/05/21 07:23:14;;;;;;;5.80;4.20;;;20.40;65.30;;;;;;5086017;28;20542;-68
2023/05/21 07:25:41;;;;;;;6.30;5.03;;;20.60;61.90;;;;;;5078812;28;20471;-68
2023/05/21 07:28:08;;;;;;;6.50;4.93;;;20.80;60.60;;;;;;5090050;28;20446;-68
2023/05/21 07:30:35;;;;;;;7.70;4.77;;;21.00;59.10;;;;;;5088564;28;20493;-68
2023/05/21 07:33:02;;;;;;;6.67;4.60;;;21.20;58.30;;;;;;5088046;28;20463;-68
2023/05/21 07:35:29;;;;;;;5.93;4.50;;;21.30;59.10;;;;;;5089130;28;20467;-67
2023/05/21 07:37:57;;;;;;;5.80;5.23;;;21.50;57.50;;;;;;5089042;28;20535;-68
2023/05/21 07:40:25;;;;;;;8.70;5.20;;;21.60;57.10;;;;;;5088701;28;20560;-68
2023/05/21 07:42:52;;;;;;;6.10;4.87;;;21.70;57.90;;;;;;5074617;28;20471;-68
2023/05/21 07:45:19;;;;;;;5.60;4.73;;;21.90;59.40;;;;;;5089256;28;20474;-67
2023/05/21 07:47:47;;;;;;;8.17;5.10;;;22.20;57.40;;;;;;5077764;28;20444;-68
2023/05/21 07:50:30;;;;;;;6.40;4.50;;;22.40;57.60;;;;;;5075248;28;20526;-67
2023/05/21 07:52:58;;;;;;;10.30;4.60;;;22.60;58.90;;;;;;5087984;28;20438;-68
2023/05/21 07:55:25;;;;;;;11.50;4.37;;;22.80;56.40;;;;;;5083670;28;20440;-69
2023/05/21 07:57:52;;;;;;;7.40;4.60;;;23.00;55.80;;;;;;5074421;28;20467;-68
2023/05/21 08:00:19;;;;;;;6.70;4.20;;;23.10;54.70;;;;;;5086991;28;20443;-68
2023/05/21 08:02:46;;;;;;;5.90;4.27;;;23.20;53.60;;;;;;5084973;28;20444;-69
2023/05/21 08:05:15;;;;;;;5.33;4.37;;;23.20;53.70;;;;;;5082974;28;20988;-68
2023/05/21 08:07:42;;;;;;;6.80;5.00;;;23.30;54.20;;;;;;5081477;28;20944;-68
2023/05/21 08:10:11;;;;;;;5.97;5.07;;;23.40;55.50;;;;;;5086406;28;20444;-68
2023/05/21 08:12:38;;;;;;;11.77;6.70;;;23.50;55.30;;;;;;5084565;28;20454;-68
2023/05/21 08:15:08;;;;;;;5.63;4.60;;;23.70;54.20;;;;;;5084978;28;20495;-68
2023/05/21 08:17:35;;;;;;;5.80;4.70;;;23.90;53.00;;;;;;5086275;28;20952;-68
2023/05/21 08:20:02;;;;;;;6.40;5.70;;;24.00;53.00;;;;;;5084582;28;20503;-69
2023/05/21 08:22:29;;;;;;;5.60;4.13;;;24.20;53.50;;;;;;5083008;28;20486;-68
2023/05/21 08:24:56;;;;;;;7.80;5.97;;;24.30;52.70;;;;;;5084531;28;20439;-68
2023/05/21 08:27:24;;;;;;;5.87;4.80;;;24.50;52.40;;;;;;5083361;28;20454;-68
2023/05/21 08:29:51;;;;;;;6.20;5.60;;;24.60;51.80;;;;;;5084756;28;20512;-68
2023/05/21 08:32:18;;;;;;;5.93;5.23;;;24.70;51.50;;;;;;5084009;28;20435;-68
2023/05/21 08:34:45;;;;;;;6.80;5.07;;;24.90;50.10;;;;;;5083999;28;20458;-68
2023/05/21 08:37:12;;;;;;;5.60;4.60;;;25.00;49.90;;;;;;5082783;28;20518;-69
2023/05/21 08:39:39;;;;;;;6.13;4.93;;;25.20;49.70;;;;;;5082089;28;20440;-68
2023/05/21 08:42:15;;;;;;;9.27;5.53;;;25.30;50.20;;;;;;5081159;28;20491;-69
2023/05/21 08:44:51;;;;;;;8.23;6.00;;;25.50;49.30;;;;;;5086745;28;20523;-68
2023/05/21 08:47:21;;;;;;;5.80;4.90;;;25.80;50.00;;;;;;5082382;28;20651;-69
2023/05/21 08:49:50;;;;;;;7.40;6.13;;;25.90;50.10;;;;;;5081798;28;20443;-68
2023/05/21 08:52:18;;;;;;;7.00;5.77;;;26.20;50.10;;;;;;5085988;28;20440;-69
2023/05/21 08:54:46;;;;;;;6.70;5.03;;;26.30;48.90;;;;;;5083522;28;20436;-69
2023/05/21 08:57:15;;;;;;;6.73;5.80;;;26.40;49.00;;;;;;5086681;28;20844;-69
2023/05/21 08:59:43;;;;;;;7.20;5.50;;;26.60;48.10;;;;;;5086282;28;20956;-68
2023/05/21 09:02:13;;;;;;;9.20;6.23;;;26.80;48.50;;;;;;5084041;28;20581;-69
2023/05/21 09:04:41;;;;;;;7.53;5.77;;;26.90;47.90;;;;;;5084440;28;20493;-69
2023/05/21 09:07:10;;;;;;;8.10;5.70;;;27.00;48.20;;;;;;5084426;28;20470;-67
2023/05/21 09:09:42;;;;;;;6.77;5.67;;;27.10;47.50;;;;;;5083152;28;20444;-67
2023/05/21 09:12:09;;;;;;;12.10;5.90;;;27.20;45.80;;;;;;5085226;28;20448;-68
2023/05/21 09:14:50;;;;;;;5.40;4.90;;;27.20;46.80;;;;;;5080074;28;20436;-68
2023/05/21 09:17:18;;;;;;;6.77;6.07;;;27.30;47.60;;;;;;5082054;28;20474;-67
2023/05/21 09:20:09;;;;;;;7.40;5.83;;;27.40;46.80;;;;;;5080563;28;20934;-67
2023/05/21 09:22:37;;;;;;;6.83;5.87;;;27.50;46.40;;;;;;5078566;28;20827;-67
2023/05/21 09:25:06;;;;;;;10.63;5.77;;;27.60;46.40;;;;;;5082708;28;20622;-67
2023/05/21 09:27:34;;;;;;;6.97;5.63;;;27.60;47.00;;;;;;5081618;28;20971;-67
2023/05/21 09:30:03;;;;;;;8.10;5.43;;;27.70;45.90;;;;;;5083444;28;20930;-67
2023/05/21 09:32:29;;;;;;;7.10;5.43;;;27.70;45.20;;;;;;5081486;28;20439;-67
2023/05/21 09:34:56;;;;;;;6.90;5.40;;;27.80;45.80;;;;;;5082832;28;20442;-67
2023/05/21 09:37:26;;;;;;;6.70;5.43;;;28.00;45.90;;;;;;5082769;28;20447;-67
2023/05/21 09:39:53;;;;;;;8.27;5.70;;;28.10;45.80;;;;;;5079482;28;20941;-69
2023/05/21 09:42:21;;;;;;;9.03;5.40;;;28.20;44.40;;;;;;5084818;28;20488;-68
2023/05/21 09:44:49;;;;;;;7.07;5.80;;;28.30;44.40;;;;;;5082093;28;20519;-68
2023/05/21 09:47:21;;;;;;;7.67;6.33;;;28.40;44.70;;;;;;5087087;28;20500;-68
2023/05/21 09:49:49;;;;;;;7.03;5.27;;;28.50;43.70;;;;;;5085139;28;20489;-68
2023/05/21 09:52:24;;;;;;;7.63;5.77;;;28.60;44.40;;;;;;5083169;28;20820;-68
2023/05/21 09:54:52;;;;;;;12.20;5.40;;;28.70;44.00;;;;;;5081273;28;20850;-68
2023/05/21 09:57:24;;;;;;;6.27;5.63;;;28.80;42.40;;;;;;5083600;28;20942;-68
2023/05/21 09:59:51;;;;;;;6.10;5.30;;;28.90;43.40;;;;;;5082689;28;21003;-68
2023/05/21 10:02:21;;;;;;;10.53;5.40;;;28.90;40.80;;;;;;5084000;28;20558;-69
2023/05/21 10:04:50;;;;;;;6.63;5.30;;;28.90;40.60;;;;;;5082427;28;20467;-68
2023/05/21 10:07:20;;;;;;;6.17;5.13;;;28.90;41.20;;;;;;5080869;28;20535;-68
2023/05/21 10:09:48;;;;;;;10.10;6.40;;;29.00;42.00;;;;;;5080466;28;21253;-69
2023/05/21 10:12:19;;;;;;;4.97;4.47;;;29.10;42.10;;;;;;5081720;28;20470;-68
2023/05/21 10:14:50;;;;;;;5.77;5.07;;;29.10;40.00;;;;;;5079887;28;20524;-68
2023/05/21 10:17:21;;;;;;;6.87;5.77;;;29.10;40.30;;;;;;5083319;28;20444;-68
2023/05/21 10:19:50;;;;;;;8.30;5.20;;;29.00;39.30;;;;;;5082796;28;20443;-69
2023/05/21 10:22:17;;;;;;;6.07;5.10;;;28.90;39.20;;;;;;5077426;28;20480;-68
2023/05/21 10:24:45;;;;;;;5.23;4.73;;;29.00;39.10;;;;;;5082340;28;20448;-68
2023/05/21 10:27:13;;;;;;;6.43;5.20;;;28.90;34.40;;;;;;5085530;28;20526;-68
2023/05/21 10:29:43;;;;;;;9.80;4.70;;;28.80;37.70;;;;;;5075485;28;20857;-68
2023/05/21 10:32:13;;;;;;;7.20;5.10;;;28.70;37.10;;;;;;5083234;28;20440;-68
2023/05/21 10:34:43;;;;;;;8.53;5.47;;;28.60;33.60;;;;;;5082189;28;20546;-68
2023/05/21 10:37:12;;;;;;;6.57;5.30;;;28.60;34.40;;;;;;5076099;28;20432;-68
2023/05/21 10:39:40;;;;;;;6.03;5.43;;;28.50;35.00;;;;;;5080591;28;20568;-68
2023/05/21 10:42:18;;;;;;;6.23;4.97;;;28.50;36.00;;;;;;5085023;28;20531;-68
2023/05/21 10:45:00;;;;;;;7.10;5.50;;;28.40;36.70;;;;;;5079088;28;20969;-68
2023/05/21 10:47:52;;;;;;;6.70;6.00;;;28.40;36.90;;;;;;5081856;28;20744;-68
2023/05/21 10:50:37;;;;;;;6.87;5.13;;;28.40;38.10;;;;;;5076321;28;20460;-68
2023/05/21 10:53:13;;;;;;;5.40;4.33;;;28.40;37.00;;;;;;5080818;28;20451;-68
2023/05/21 10:55:51;;;;;;;6.20;5.60;;;28.50;37.00;;;;;;5083022;28;20520;-68
2023/05/21 10:58:40;;;;;;;8.30;5.57;;;28.60;38.90;;;;;;5081306;28;20756;-68
2023/05/21 11:01:08;;;;;;;8.53;6.03;;;28.60;36.20;;;;;;5079584;28;20440;-68
2023/05/21 11:03:36;;;;;;;5.17;4.67;;;28.60;35.80;;;;;;5080660;28;20445;-68
2023/05/21 11:06:05;;;;;;;7.50;5.93;;;28.50;35.40;;;;;;5081620;28;20447;-68
2023/05/21 11:08:34;;;;;;;6.10;5.50;;;28.40;35.40;;;;;;5078750;28;20875;-70
2023/05/21 11:11:02;;;;;;;10.80;6.10;;;28.40;37.60;;;;;;5081759;28;20443;-68
2023/05/21 11:13:44;;;;;;;6.77;5.43;;;28.40;36.40;;;;;;5080350;28;20455;-68
2023/05/21 11:16:15;;;;;;;6.10;5.33;;;28.30;35.00;;;;;;5082332;28;20566;-68
2023/05/21 11:19:00;;;;;;;6.33;4.70;;;28.30;36.70;;;;;;5082836;28;20870;-67
2023/05/21 11:21:31;;;;;;;6.43;5.20;;;28.20;34.90;;;;;;5082155;28;20987;-67
2023/05/21 11:24:19;;;;;;;7.00;4.60;;;28.20;35.00;;;;;;5088656;28;20447;-68
2023/05/21 11:27:03;;;;;;;5.77;5.03;;;28.10;35.00;;;;;;5089409;28;20439;-67
2023/05/21 11:29:43;;;;;;;5.80;5.20;;;28.20;36.40;;;;;;5085055;28;20446;-68
2023/05/21 11:32:11;;;;;;;6.50;5.80;;;28.20;37.90;;;;;;5085873;28;20496;-68
2023/05/21 11:34:40;;;;;;;5.33;4.60;;;28.30;37.70;;;;;;5091908;28;20451;-68
2023/05/21 11:37:30;;;;;;;6.10;5.50;;;28.40;37.10;;;;;;5087511;28;20992;-68
2023/05/21 11:39:59;;;;;;;7.77;6.50;;;28.60;38.40;;;;;;5087057;28;20445;-68
2023/05/21 11:42:33;;;;;;;5.70;4.83;;;28.70;39.30;;;;;;5090610;28;20522;-68
2023/05/21 11:45:02;;;;;;;6.63;5.73;;;28.80;37.60;;;;;;5092672;28;20455;-68
2023/05/21 11:47:30;;;;;;;6.60;5.20;;;28.90;34.40;;;;;;5097770;28;20434;-67
2023/05/21 11:50:01;;;;;;;6.63;5.37;;;28.90;35.40;;;;;;5097522;28;20441;-69
2023/05/21 11:52:31;;;;;;;5.90;5.30;;;29.00;36.70;;;;;;5098464;28;20427;-67
2023/05/21 11:54:58;;;;;;;6.60;4.50;;;29.20;37.10;;;;;;5098128;28;20442;-67
2023/05/21 11:57:30;;;;;;;7.97;5.87;;;29.40;36.60;;;;;;5098004;28;20439;-68
2023/05/21 11:59:58;;;;;;;6.97;6.10;;;29.50;34.30;;;;;;5097928;28;20431;-67
2023/05/21 12:02:27;;;;;;;8.37;4.97;;;29.60;35.30;;;;;;5098611;28;20490;-67
2023/05/21 12:04:54;;;;;;;8.70;5.50;;;29.70;35.50;;;;;;5098541;28;20439;-68
2023/05/21 12:07:21;;;;;;;6.70;4.80;;;29.70;32.50;;;;;;5098575;28;20452;-68
2023/05/21 12:09:51;;;;;;;5.83;4.97;;;29.80;32.60;;;;;;5098165;28;20986;-68
2023/05/21 12:12:20;;;;;;;8.93;5.33;;;29.80;34.10;;;;;;5098475;28;20471;-68
2023/05/21 12:14:48;;;;;;;8.90;5.67;;;29.80;34.60;;;;;;5098555;28;20800;-68
2023/05/21 12:17:16;;;;;;;7.37;6.03;;;29.80;34.20;;;;;;5057711;28;20929;-68
2023/05/21 12:19:45;;;;;;;6.33;5.23;;;29.80;33.50;;;;;;5058020;28;20438;-68
2023/05/21 12:22:14;;;;;;;6.00;5.40;;;29.70;33.00;;;;;;5057961;28;20574;-68
2023/05/21 12:24:42;;;;;;;8.37;5.60;;;29.70;33.20;;;;;;5057730;28;20449;-67
2023/05/21 12:27:12;;;;;;;6.17;5.20;;;29.80;35.10;;;;;;5057877;28;20448;-68
2023/05/21 12:29:41;;;;;;;7.20;5.43;;;29.70;31.50;;;;;;5055743;28;20961;-67
2023/05/21 12:32:11;;;;;;;8.23;5.27;;;29.70;32.10;;;;;;5056939;28;20446;-68
2023/05/21 12:34:43;;;;;;;5.20;4.70;;;29.70;31.80;;;;;;5055126;28;20444;-67
2023/05/21 12:37:12;;;;;;;8.57;6.10;;;29.60;31.80;;;;;;5055156;28;20445;-67
2023/05/21 12:39:40;;;;;;;5.60;4.90;;;29.70;33.20;;;;;;5054530;28;20492;-67
2023/05/21 12:42:07;;;;;;;6.93;6.07;;;29.60;31.60;;;;;;5054808;28;20572;-67
2023/05/21 12:44:36;;;;;;;6.90;4.93;;;29.60;33.80;;;;;;5054781;28;20434;-68
2023/05/21 12:47:03;;;;;;;6.90;5.67;;;29.50;31.50;;;;;;5054686;28;20540;-68
2023/05/21 12:49:37;;;;;;;6.00;5.17;;;29.40;31.70;;;;;;5054224;28;20448;-69
2023/05/21 12:52:09;;;;;;;8.27;6.10;;;29.20;32.00;;;;;;5054504;28;20484;-67